createdAt,value
2017-07-10T00:00:48.731Z,0
2017-07-10T00:01:48.729Z,0
2017-07-10T00:02:48.736Z,0
2017-07-10T00:03:48.731Z,0
2017-07-10T00:05:48.734Z,0
2017-07-10T00:06:48.756Z,0
2017-07-10T00:07:48.677Z,0
2017-07-10T00:08:48.779Z,0
2017-07-10T00:09:48.653Z,0
2017-07-10T00:10:48.686Z,0
2017-07-10T00:11:48.657Z,0
2017-07-10T00:12:48.614Z,0
2017-07-10T00:13:48.620Z,0
2017-07-10T00:14:48.645Z,0
2017-07-10T00:15:48.656Z,0
2017-07-10T00:16:48.666Z,0
2017-07-10T00:17:48.741Z,0
2017-07-10T00:18:48.689Z,0
2017-07-10T00:19:48.778Z,0
2017-07-10T00:20:48.770Z,0
2017-07-10T00:21:48.742Z,0
2017-07-10T00:22:48.773Z,0
2017-07-10T00:23:48.767Z,0
2017-07-10T00:24:48.771Z,0
2017-07-10T00:25:48.773Z,0
2017-07-10T00:26:48.697Z,0
2017-07-10T00:27:48.766Z,0
2017-07-10T00:28:48.772Z,0
2017-07-10T00:29:48.690Z,0
2017-07-10T00:30:48.714Z,0
2017-07-10T00:31:48.785Z,0
2017-07-10T00:32:48.789Z,0
2017-07-10T00:33:48.792Z,0
2017-07-10T00:34:48.781Z,0
2017-07-10T00:35:48.697Z,0
2017-07-10T00:36:48.697Z,0
2017-07-10T00:37:48.685Z,0
2017-07-10T00:38:48.770Z,0
2017-07-10T00:39:48.774Z,0
2017-07-10T00:40:48.769Z,0
2017-07-10T00:41:48.775Z,0
2017-07-10T00:42:48.772Z,0
2017-07-10T00:43:48.773Z,0
2017-07-10T00:44:48.775Z,0
2017-07-10T00:45:48.775Z,0
2017-07-10T00:46:48.775Z,0
2017-07-10T00:47:48.763Z,0
2017-07-10T00:48:48.761Z,0
2017-07-10T00:49:48.765Z,0
2017-07-10T00:50:48.764Z,0
2017-07-10T00:51:48.761Z,0
2017-07-10T00:52:48.767Z,0
2017-07-10T00:53:48.765Z,0
2017-07-10T00:54:48.767Z,0
2017-07-10T00:55:48.764Z,0
2017-07-10T00:56:48.765Z,0
2017-07-10T00:57:48.806Z,0
2017-07-10T00:58:48.793Z,0
2017-07-10T00:59:48.716Z,0
2017-07-10T01:00:48.712Z,0
2017-07-10T01:01:48.717Z,0
2017-07-10T01:02:48.798Z,0
2017-07-10T01:03:48.773Z,0
2017-07-10T01:04:48.716Z,0
2017-07-10T01:05:48.771Z,0
2017-07-10T01:06:48.787Z,0
2017-07-10T01:07:48.773Z,0
2017-07-10T01:08:48.811Z,0
2017-07-10T01:09:48.761Z,0
2017-07-10T01:10:48.798Z,0
2017-07-10T01:11:48.771Z,0
2017-07-10T01:12:48.799Z,0
2017-07-10T01:13:48.720Z,0
2017-07-10T01:14:48.722Z,0
2017-07-10T01:15:48.791Z,0
2017-07-10T01:16:48.742Z,0
2017-07-10T01:17:48.780Z,0
2017-07-10T01:18:48.781Z,0
2017-07-10T01:19:48.780Z,0
2017-07-10T01:20:48.776Z,0
2017-07-10T01:21:48.776Z,0
2017-07-10T01:22:48.774Z,0
2017-07-10T01:23:48.776Z,0
2017-07-10T01:24:48.779Z,0
2017-07-10T01:25:48.780Z,0
2017-07-10T01:26:48.783Z,0
2017-07-10T01:27:48.780Z,0
2017-07-10T01:28:48.783Z,0
2017-07-10T01:29:48.795Z,0
2017-07-10T01:30:48.787Z,0
2017-07-10T01:31:48.785Z,0
2017-07-10T01:32:48.782Z,0
2017-07-10T01:33:48.783Z,0
2017-07-10T01:34:48.789Z,0
2017-07-10T01:35:48.788Z,0
2017-07-10T01:36:48.788Z,0
2017-07-10T01:37:48.787Z,0
2017-07-10T01:38:48.751Z,0
2017-07-10T01:39:48.821Z,0
2017-07-10T01:40:48.734Z,0
2017-07-10T01:41:48.817Z,0
2017-07-10T01:42:48.820Z,0
2017-07-10T01:43:48.753Z,0
2017-07-10T01:44:48.817Z,0
2017-07-10T01:45:48.816Z,0
2017-07-10T01:46:48.817Z,0
2017-07-10T01:47:48.822Z,0
2017-07-10T01:48:48.830Z,0
2017-07-10T01:49:48.812Z,0
2017-07-10T01:50:48.820Z,0
2017-07-10T01:51:48.833Z,0
2017-07-10T01:52:48.818Z,0
2017-07-10T01:53:48.833Z,0
2017-07-10T01:54:48.829Z,0
2017-07-10T01:55:48.835Z,0
2017-07-10T01:56:48.841Z,0
2017-07-10T01:57:48.825Z,0
2017-07-10T01:58:48.761Z,0
2017-07-10T01:59:48.840Z,0
2017-07-10T02:00:48.831Z,0
2017-07-10T02:01:48.747Z,0
2017-07-10T02:02:48.797Z,0
2017-07-10T02:03:48.832Z,0
2017-07-10T02:04:48.802Z,0
2017-07-10T02:05:48.830Z,0
2017-07-10T02:06:48.821Z,0
2017-07-10T02:07:48.825Z,0
2017-07-10T02:08:48.767Z,0
2017-07-10T02:09:48.826Z,0
2017-07-10T02:10:48.804Z,0
2017-07-10T02:11:48.840Z,0
2017-07-10T02:12:48.844Z,0
2017-07-10T02:13:48.810Z,0
2017-07-10T02:14:48.825Z,0
2017-07-10T02:15:48.757Z,0
2017-07-10T02:16:48.830Z,0
2017-07-10T02:17:48.809Z,0
2017-07-10T02:18:48.815Z,0
2017-07-10T02:19:48.827Z,0
2017-07-10T02:20:48.825Z,0
2017-07-10T02:21:48.824Z,0
2017-07-10T02:22:48.823Z,0
2017-07-10T02:23:48.825Z,0
2017-07-10T02:24:48.831Z,0
2017-07-10T02:25:48.832Z,0
2017-07-10T02:26:48.797Z,0
2017-07-10T02:27:48.829Z,0
2017-07-10T02:28:48.845Z,0
2017-07-10T02:29:48.820Z,0
2017-07-10T02:30:48.767Z,0
2017-07-10T02:31:48.853Z,0
2017-07-10T02:32:48.847Z,0
2017-07-10T02:33:48.782Z,0
2017-07-10T02:34:48.960Z,0
2017-07-10T02:35:48.798Z,0
2017-07-10T02:36:48.815Z,0
2017-07-10T02:37:48.772Z,0
2017-07-10T02:38:48.831Z,0
2017-07-10T02:39:48.833Z,0
2017-07-10T02:40:48.839Z,0
2017-07-10T02:41:48.813Z,0
2017-07-10T02:42:48.834Z,0
2017-07-10T02:43:48.872Z,0
2017-07-10T02:44:48.841Z,0
2017-07-10T02:45:48.851Z,0
2017-07-10T02:46:48.842Z,0
2017-07-10T02:47:48.840Z,0
2017-07-10T02:48:48.846Z,0
2017-07-10T02:49:48.863Z,0
2017-07-10T02:50:48.777Z,0
2017-07-10T02:51:48.845Z,0
2017-07-10T02:52:48.868Z,0
2017-07-10T02:53:48.873Z,0
2017-07-10T02:54:48.855Z,0
2017-07-10T02:55:48.766Z,0
2017-07-10T02:56:48.860Z,0
2017-07-10T02:57:48.793Z,0
2017-07-10T02:58:48.862Z,0
2017-07-10T02:59:48.871Z,0
2017-07-10T03:00:48.797Z,0
2017-07-10T03:01:48.847Z,0
2017-07-10T03:02:48.823Z,0
2017-07-10T03:03:48.863Z,0
2017-07-10T03:04:48.783Z,0
2017-07-10T03:05:48.865Z,0
2017-07-10T03:06:48.788Z,0
2017-07-10T03:07:48.790Z,0
2017-07-10T03:08:48.756Z,0
2017-07-10T03:09:48.772Z,0
2017-07-10T03:10:48.818Z,0
2017-07-10T03:11:48.846Z,0
2017-07-10T03:12:48.763Z,0
2017-07-10T03:13:48.759Z,0
2017-07-10T03:14:48.814Z,0
2017-07-10T03:15:48.851Z,0
2017-07-10T03:16:48.752Z,0
2017-07-10T03:17:48.755Z,0
2017-07-10T03:18:48.768Z,0
2017-07-10T03:19:48.817Z,0
2017-07-10T03:20:48.844Z,0
2017-07-10T03:21:48.747Z,0
2017-07-10T03:22:48.750Z,0
2017-07-10T03:23:48.719Z,0
2017-07-10T03:24:48.751Z,0
2017-07-10T03:25:48.863Z,0
2017-07-10T03:26:48.726Z,0
2017-07-10T03:27:48.871Z,0
2017-07-10T03:28:48.800Z,0
2017-07-10T03:29:48.843Z,0
2017-07-10T03:30:48.843Z,0
2017-07-10T03:31:48.891Z,0
2017-07-10T03:32:48.880Z,0
2017-07-10T03:33:48.886Z,0
2017-07-10T03:34:48.883Z,0
2017-07-10T03:35:48.804Z,0
2017-07-10T03:36:48.880Z,0
2017-07-10T03:37:48.890Z,0
2017-07-10T03:38:48.892Z,0
2017-07-10T03:39:48.881Z,0
2017-07-10T03:40:48.887Z,0
2017-07-10T03:41:48.888Z,0
2017-07-10T03:42:48.891Z,0
2017-07-10T03:43:48.892Z,0
2017-07-10T03:44:48.893Z,0
2017-07-10T03:45:48.890Z,0
2017-07-10T03:46:48.879Z,0
2017-07-10T03:47:48.859Z,0
2017-07-10T03:48:48.892Z,0
2017-07-10T03:49:48.988Z,0
2017-07-10T03:50:48.981Z,0
2017-07-10T03:51:48.888Z,0
2017-07-10T03:52:48.862Z,0
2017-07-10T03:53:48.877Z,0
2017-07-10T03:54:48.893Z,0
2017-07-10T03:55:48.902Z,0
2017-07-10T03:56:48.896Z,0
2017-07-10T03:57:48.816Z,0
2017-07-10T03:58:48.890Z,0
2017-07-10T03:59:48.861Z,0
2017-07-10T04:00:48.900Z,0
2017-07-10T04:01:48.869Z,0
2017-07-10T04:02:48.883Z,0
2017-07-10T04:03:48.902Z,0
2017-07-10T04:04:48.814Z,0
2017-07-10T04:05:48.888Z,0
2017-07-10T04:06:48.903Z,0
2017-07-10T04:07:48.898Z,0
2017-07-10T04:08:48.884Z,0
2017-07-10T04:09:48.888Z,0
2017-07-10T04:10:48.883Z,0
2017-07-10T04:11:48.886Z,0
2017-07-10T04:12:48.887Z,0
2017-07-10T04:13:48.894Z,0
2017-07-10T04:14:48.887Z,0
2017-07-10T04:15:48.889Z,0
2017-07-10T04:16:48.888Z,0
2017-07-10T04:17:48.891Z,0
2017-07-10T04:18:48.894Z,0
2017-07-10T04:19:48.910Z,0
2017-07-10T04:20:48.831Z,0
2017-07-10T04:21:48.836Z,0
2017-07-10T04:22:48.895Z,0
2017-07-10T04:23:48.898Z,0
2017-07-10T04:24:48.910Z,0
2017-07-10T04:25:48.912Z,0
2017-07-10T04:26:48.899Z,0
2017-07-10T04:27:48.826Z,0
2017-07-10T04:28:48.900Z,0
2017-07-10T04:29:48.895Z,0
2017-07-10T04:30:48.901Z,0
2017-07-10T04:31:48.913Z,0
2017-07-10T04:32:48.905Z,0
2017-07-10T04:33:48.905Z,0
2017-07-10T04:34:48.904Z,0
2017-07-10T04:35:48.903Z,0
2017-07-10T04:36:48.903Z,0
2017-07-10T04:37:48.904Z,0
2017-07-10T04:38:48.870Z,0
2017-07-10T04:39:48.859Z,0
2017-07-10T04:40:48.859Z,0
2017-07-10T04:41:48.856Z,0
2017-07-10T04:42:48.863Z,0
2017-07-10T04:43:48.822Z,0
2017-07-10T04:44:48.859Z,0
2017-07-10T04:45:48.833Z,0
2017-07-10T04:46:48.834Z,0
2017-07-10T04:47:48.910Z,0
2017-07-10T04:48:48.904Z,0
2017-07-10T04:49:48.910Z,0
2017-07-10T04:50:48.905Z,0
2017-07-10T04:51:48.908Z,0
2017-07-10T04:52:48.906Z,14
2017-07-10T04:53:48.904Z,19
2017-07-10T04:54:48.910Z,22
2017-07-10T04:55:49.014Z,23
2017-07-10T04:56:48.911Z,21
2017-07-10T04:57:48.915Z,20
2017-07-10T04:58:48.994Z,17
2017-07-10T04:59:48.915Z,16
2017-07-10T05:00:48.921Z,15
2017-07-10T05:01:48.913Z,15
2017-07-10T05:02:48.912Z,15
2017-07-10T05:03:48.914Z,16
2017-07-10T05:04:48.916Z,18
2017-07-10T05:05:48.913Z,21
2017-07-10T05:06:48.916Z,27
2017-07-10T05:07:48.905Z,35
2017-07-10T05:08:48.936Z,42
2017-07-10T05:09:48.893Z,45
2017-07-10T05:10:48.924Z,50
2017-07-10T05:11:48.876Z,59
2017-07-10T05:12:48.947Z,68
2017-07-10T05:13:48.860Z,78
2017-07-10T05:14:48.930Z,84
2017-07-10T05:15:48.850Z,86
2017-07-10T05:16:48.930Z,91
2017-07-10T05:17:48.942Z,93
2017-07-10T05:18:48.940Z,95
2017-07-10T05:19:48.925Z,93
2017-07-10T05:20:48.933Z,95
2017-07-10T05:21:48.940Z,104
2017-07-10T05:22:48.923Z,111
2017-07-10T05:23:48.861Z,128
2017-07-10T05:24:48.954Z,143
2017-07-10T05:25:48.930Z,159
2017-07-10T05:26:48.858Z,174
2017-07-10T05:27:48.857Z,183
2017-07-10T05:28:48.862Z,184
2017-07-10T05:29:48.906Z,178
2017-07-10T05:30:48.949Z,172
2017-07-10T05:31:48.859Z,160
2017-07-10T05:32:48.953Z,151
2017-07-10T05:33:48.871Z,141
2017-07-10T05:34:48.950Z,133
2017-07-10T05:35:48.957Z,125
2017-07-10T05:36:48.948Z,119
2017-07-10T05:37:48.931Z,101
2017-07-10T05:38:48.935Z,109
2017-07-10T05:39:48.958Z,106
2017-07-10T05:40:48.933Z,95
2017-07-10T05:41:48.949Z,91
2017-07-10T05:42:48.877Z,90
2017-07-10T05:43:48.871Z,88
2017-07-10T05:44:48.940Z,84
2017-07-10T05:45:48.958Z,83
2017-07-10T05:46:48.913Z,78
2017-07-10T05:47:48.942Z,76
2017-07-10T05:48:48.964Z,73
2017-07-10T05:49:48.928Z,69
2017-07-10T05:50:48.928Z,64
2017-07-10T05:51:48.930Z,58
2017-07-10T05:52:48.930Z,54
2017-07-10T05:53:48.933Z,50
2017-07-10T05:54:48.931Z,48
2017-07-10T05:55:48.932Z,48
2017-07-10T05:56:48.930Z,50
2017-07-10T05:57:48.930Z,55
2017-07-10T05:58:48.935Z,61
2017-07-10T05:59:48.948Z,66
2017-07-10T06:00:48.946Z,75
2017-07-10T06:01:48.865Z,82
2017-07-10T06:02:48.861Z,92
2017-07-10T06:03:48.953Z,101
2017-07-10T06:04:48.948Z,108
2017-07-10T06:05:48.948Z,109
2017-07-10T06:06:48.951Z,114
2017-07-10T06:07:48.865Z,113
2017-07-10T06:08:48.949Z,124
2017-07-10T06:09:48.885Z,133
2017-07-10T06:10:48.965Z,138
2017-07-10T06:11:48.977Z,142
2017-07-10T06:12:48.878Z,145
2017-07-10T06:13:48.885Z,148
2017-07-10T06:14:48.987Z,151
2017-07-10T06:15:48.955Z,154
2017-07-10T06:16:48.895Z,161
2017-07-10T06:17:48.981Z,169
2017-07-10T06:18:48.884Z,180
2017-07-10T06:19:48.940Z,192
2017-07-10T06:20:48.943Z,204
2017-07-10T06:21:48.945Z,216
2017-07-10T06:22:48.943Z,228
2017-07-10T06:23:48.945Z,231
2017-07-10T06:24:48.945Z,231
2017-07-10T06:25:48.946Z,230
2017-07-10T06:26:48.950Z,223
2017-07-10T06:27:48.955Z,215
2017-07-10T06:28:48.953Z,209
2017-07-10T06:29:48.950Z,201
2017-07-10T06:30:48.950Z,195
2017-07-10T06:31:48.955Z,191
2017-07-10T06:32:48.949Z,186
2017-07-10T06:33:48.949Z,184
2017-07-10T06:34:48.951Z,179
2017-07-10T06:35:48.951Z,171
2017-07-10T06:36:48.952Z,160
2017-07-10T06:37:48.953Z,148
2017-07-10T06:38:48.951Z,134
2017-07-10T06:39:48.907Z,125
2017-07-10T06:40:48.962Z,119
2017-07-10T06:41:48.950Z,111
2017-07-10T06:42:48.996Z,107
2017-07-10T06:43:48.948Z,107
2017-07-10T06:44:48.906Z,101
2017-07-10T06:45:48.905Z,97
2017-07-10T06:46:48.912Z,96
2017-07-10T06:47:48.954Z,92
2017-07-10T06:48:48.986Z,91
2017-07-10T06:49:49.001Z,91
2017-07-10T06:50:48.957Z,90
2017-07-10T06:51:48.994Z,92
2017-07-10T06:52:48.912Z,93
2017-07-10T06:53:49.003Z,97
2017-07-10T06:54:48.909Z,100
2017-07-10T06:55:49.004Z,102
2017-07-10T06:56:48.930Z,104
2017-07-10T06:57:49.001Z,104
2017-07-10T06:58:48.959Z,103
2017-07-10T06:59:49.003Z,95
2017-07-10T07:00:49.007Z,90
2017-07-10T07:01:49.003Z,84
2017-07-10T07:02:48.977Z,79
2017-07-10T07:03:48.999Z,76
2017-07-10T07:04:48.994Z,75
2017-07-10T07:05:49.036Z,79
2017-07-10T07:06:49.010Z,86
2017-07-10T07:07:49.001Z,95
2017-07-10T07:08:48.983Z,105
2017-07-10T07:09:48.985Z,112
2017-07-10T07:10:48.991Z,105
2017-07-10T07:11:48.972Z,132
2017-07-10T07:12:48.992Z,141
2017-07-10T07:13:48.984Z,148
2017-07-10T07:14:48.987Z,151
2017-07-10T07:15:48.985Z,149
2017-07-10T07:16:48.987Z,151
2017-07-10T07:17:48.985Z,153
2017-07-10T07:18:49.050Z,153
2017-07-10T07:19:48.990Z,154
2017-07-10T07:20:48.994Z,154
2017-07-10T07:21:48.990Z,157
2017-07-10T07:22:49.017Z,161
2017-07-10T07:23:48.993Z,170
2017-07-10T07:24:49.070Z,179
2017-07-10T07:25:48.993Z,182
2017-07-10T07:26:48.998Z,183
2017-07-10T07:27:48.995Z,178
2017-07-10T07:28:48.993Z,168
2017-07-10T07:29:48.935Z,159
2017-07-10T07:30:49.007Z,147
2017-07-10T07:31:49.017Z,137
2017-07-10T07:32:48.940Z,133
2017-07-10T07:33:48.926Z,135
2017-07-10T07:34:49.016Z,135
2017-07-10T07:35:48.934Z,133
2017-07-10T07:36:48.936Z,128
2017-07-10T07:37:49.021Z,123
2017-07-10T07:38:49.020Z,120
2017-07-10T07:39:48.934Z,120
2017-07-10T07:40:49.025Z,122
2017-07-10T07:41:48.934Z,128
2017-07-10T07:42:49.023Z,138
2017-07-10T07:43:48.934Z,150
2017-07-10T07:44:48.943Z,162
2017-07-10T07:45:49.025Z,169
2017-07-10T07:46:49.012Z,172
2017-07-10T07:47:49.009Z,171
2017-07-10T07:48:49.027Z,173
2017-07-10T07:49:48.990Z,177
2017-07-10T07:50:49.014Z,182
2017-07-10T07:51:49.025Z,186
2017-07-10T07:52:48.940Z,187
2017-07-10T07:53:49.026Z,183
2017-07-10T07:54:49.025Z,179
2017-07-10T07:55:49.027Z,176
2017-07-10T07:56:48.995Z,180
2017-07-10T07:57:48.993Z,186
2017-07-10T07:58:49.038Z,190
2017-07-10T07:59:49.035Z,192
2017-07-10T08:00:49.014Z,190
2017-07-10T08:01:49.010Z,185
2017-07-10T08:02:49.014Z,176
2017-07-10T08:03:49.018Z,165
2017-07-10T08:04:49.013Z,153
2017-07-10T08:05:49.017Z,140
2017-07-10T08:06:49.018Z,132
2017-07-10T08:07:49.022Z,128
2017-07-10T08:08:48.940Z,130
2017-07-10T08:09:48.960Z,134
2017-07-10T08:10:48.999Z,136
2017-07-10T08:11:48.999Z,140
2017-07-10T08:12:49.038Z,146
2017-07-10T08:13:48.948Z,152
2017-07-10T08:14:48.956Z,160
2017-07-10T08:15:49.049Z,169
2017-07-10T08:16:49.016Z,177
2017-07-10T08:17:49.037Z,193
2017-07-10T08:18:49.053Z,208
2017-07-10T08:19:49.042Z,221
2017-07-10T08:20:49.018Z,229
2017-07-10T08:21:49.038Z,232
2017-07-10T08:22:48.981Z,231
2017-07-10T08:23:49.046Z,229
2017-07-10T08:24:49.065Z,220
2017-07-10T08:25:49.029Z,208
2017-07-10T08:26:49.032Z,198
2017-07-10T08:27:49.031Z,188
2017-07-10T08:28:49.031Z,180
2017-07-10T08:29:49.020Z,178
2017-07-10T08:30:49.018Z,184
2017-07-10T08:31:49.018Z,189
2017-07-10T08:32:49.019Z,192
2017-07-10T08:33:49.024Z,196
2017-07-10T08:34:49.020Z,199
2017-07-10T08:35:49.018Z,203
2017-07-10T08:36:49.023Z,200
2017-07-10T08:37:49.019Z,188
2017-07-10T08:38:49.024Z,168
2017-07-10T08:39:49.037Z,142
2017-07-10T08:40:49.046Z,118
2017-07-10T08:41:49.038Z,101
2017-07-10T08:42:49.039Z,90
2017-07-10T08:43:49.053Z,82
2017-07-10T08:44:49.039Z,77
2017-07-10T08:45:49.041Z,73
2017-07-10T08:46:49.041Z,69
2017-07-10T08:47:49.045Z,62
2017-07-10T08:48:49.048Z,55
2017-07-10T08:49:49.044Z,53
2017-07-10T08:50:49.043Z,52
2017-07-10T08:51:49.049Z,55
2017-07-10T08:52:49.047Z,57
2017-07-10T08:53:48.965Z,60
2017-07-10T08:54:49.060Z,60
2017-07-10T08:55:49.048Z,58
2017-07-10T08:56:49.133Z,54
2017-07-10T08:57:49.051Z,55
2017-07-10T08:58:49.051Z,56
2017-07-10T08:59:49.040Z,56
2017-07-10T09:00:49.033Z,35
2017-07-10T09:01:49.035Z,58
2017-07-10T09:02:49.036Z,60
2017-07-10T09:03:49.040Z,63
2017-07-10T09:04:49.036Z,66
2017-07-10T09:05:49.041Z,69
2017-07-10T09:06:49.037Z,71
2017-07-10T09:07:49.041Z,73
2017-07-10T09:08:49.041Z,76
2017-07-10T09:09:49.039Z,77
2017-07-10T09:10:49.091Z,76
2017-07-10T09:11:49.053Z,70
2017-07-10T09:12:49.070Z,58
2017-07-10T09:13:49.089Z,49
2017-07-10T09:14:49.057Z,38
2017-07-10T09:15:49.057Z,34
2017-07-10T09:16:49.072Z,32
2017-07-10T09:17:49.071Z,32
2017-07-10T09:18:49.108Z,35
2017-07-10T09:19:49.060Z,42
2017-07-10T09:20:49.084Z,53
2017-07-10T09:21:49.074Z,63
2017-07-10T09:22:48.999Z,69
2017-07-10T09:23:49.086Z,72
2017-07-10T09:24:48.992Z,72
2017-07-10T09:25:49.065Z,66
2017-07-10T09:26:49.083Z,62
2017-07-10T09:27:49.078Z,59
2017-07-10T09:28:49.044Z,59
2017-07-10T09:29:49.087Z,61
2017-07-10T09:30:49.071Z,60
2017-07-10T09:31:49.068Z,55
2017-07-10T09:32:49.065Z,50
2017-07-10T09:33:49.064Z,51
2017-07-10T09:34:49.068Z,54
2017-07-10T09:35:49.067Z,54
2017-07-10T09:36:49.072Z,52
2017-07-10T09:37:49.064Z,46
2017-07-10T09:38:49.070Z,44
2017-07-10T09:39:49.070Z,48
2017-07-10T09:40:49.011Z,62
2017-07-10T09:41:49.064Z,80
2017-07-10T09:42:49.069Z,96
2017-07-10T09:43:49.070Z,120
2017-07-10T09:44:49.091Z,136
2017-07-10T09:45:49.142Z,132
2017-07-10T09:46:49.102Z,118
2017-07-10T09:47:49.090Z,102
2017-07-10T09:48:49.071Z,86
2017-07-10T09:49:49.056Z,77
2017-07-10T09:50:49.011Z,74
2017-07-10T09:51:49.091Z,61
2017-07-10T09:52:49.074Z,43
2017-07-10T09:53:49.075Z,28
2017-07-10T09:54:49.101Z,18
2017-07-10T09:55:49.092Z,14
2017-07-10T09:56:49.096Z,16
2017-07-10T09:57:49.014Z,19
2017-07-10T09:58:49.098Z,30
2017-07-10T09:59:49.004Z,40
2017-07-10T10:00:49.059Z,44
2017-07-10T10:01:49.111Z,49
2017-07-10T10:02:49.095Z,55
2017-07-10T10:03:49.018Z,41
2017-07-10T10:04:49.012Z,26
2017-07-10T10:05:49.065Z,21
2017-07-10T10:06:49.106Z,25
2017-07-10T10:07:49.100Z,56
2017-07-10T10:08:49.062Z,91
2017-07-10T10:09:49.061Z,111
2017-07-10T10:10:49.089Z,104
2017-07-10T10:11:49.008Z,89
2017-07-10T10:12:49.057Z,81
2017-07-10T10:13:49.026Z,75
2017-07-10T10:14:49.112Z,74
2017-07-10T10:15:49.057Z,85
2017-07-10T10:16:49.011Z,104
2017-07-10T10:17:49.095Z,110
2017-07-10T10:18:49.007Z,160
2017-07-10T10:19:49.058Z,197
2017-07-10T10:20:49.032Z,242
2017-07-10T10:21:49.118Z,294
2017-07-10T10:22:49.022Z,328
2017-07-10T10:23:49.116Z,333
2017-07-10T10:24:49.111Z,327
2017-07-10T10:25:49.027Z,311
2017-07-10T10:26:49.110Z,299
2017-07-10T10:27:49.106Z,333
2017-07-10T10:28:49.111Z,371
2017-07-10T10:29:49.112Z,398
2017-07-10T10:30:49.094Z,397
2017-07-10T10:31:49.093Z,429
2017-07-10T10:32:49.099Z,697
2017-07-10T10:33:49.094Z,694
2017-07-10T10:34:49.095Z,680
2017-07-10T10:35:49.108Z,593
2017-07-10T10:36:49.095Z,566
2017-07-10T10:37:49.106Z,574
2017-07-10T10:38:49.104Z,569
2017-07-10T10:39:49.102Z,580
2017-07-10T10:40:49.086Z,766
2017-07-10T10:41:49.086Z,483
2017-07-10T10:42:49.091Z,381
2017-07-10T10:43:49.092Z,337
2017-07-10T10:44:49.092Z,304
2017-07-10T10:45:49.091Z,279
2017-07-10T10:46:49.094Z,263
2017-07-10T10:47:49.091Z,243
2017-07-10T10:48:49.094Z,243
2017-07-10T10:49:49.091Z,257
2017-07-10T10:50:49.105Z,259
2017-07-10T10:51:49.189Z,250
2017-07-10T10:52:49.103Z,238
2017-07-10T10:53:49.123Z,231
2017-07-10T10:54:49.040Z,241
2017-07-10T10:55:49.149Z,265
2017-07-10T10:56:49.130Z,274
2017-07-10T10:57:49.132Z,259
2017-07-10T10:58:49.045Z,242
2017-07-10T10:59:49.130Z,220
2017-07-10T11:00:49.139Z,213
2017-07-10T11:01:49.090Z,222
2017-07-10T11:02:49.051Z,248
2017-07-10T11:03:49.135Z,275
2017-07-10T11:04:49.136Z,292
2017-07-10T11:05:49.049Z,304
2017-07-10T11:06:49.136Z,305
2017-07-10T11:07:49.110Z,308
2017-07-10T11:08:49.138Z,309
2017-07-10T11:09:49.052Z,303
2017-07-10T11:10:49.140Z,287
2017-07-10T11:11:49.081Z,264
2017-07-10T11:12:49.141Z,243
2017-07-10T11:13:49.058Z,223
2017-07-10T11:14:49.095Z,206
2017-07-10T11:15:49.098Z,191
2017-07-10T11:16:49.060Z,184
2017-07-10T11:17:49.135Z,181
2017-07-10T11:18:49.104Z,188
2017-07-10T11:19:49.113Z,196
2017-07-10T11:20:49.151Z,199
2017-07-10T11:21:49.133Z,201
2017-07-10T11:22:49.132Z,200
2017-07-10T11:23:49.119Z,195
2017-07-10T11:24:49.144Z,201
2017-07-10T11:25:49.149Z,220
2017-07-10T11:26:49.146Z,245
2017-07-10T11:27:49.148Z,268
2017-07-10T11:28:49.145Z,291
2017-07-10T11:29:49.147Z,302
2017-07-10T11:30:49.143Z,304
2017-07-10T11:31:49.127Z,302
2017-07-10T11:32:49.133Z,296
2017-07-10T11:33:49.131Z,281
2017-07-10T11:34:49.132Z,285
2017-07-10T11:35:49.136Z,311
2017-07-10T11:36:49.138Z,363
2017-07-10T11:37:49.051Z,405
2017-07-10T11:38:49.158Z,427
2017-07-10T11:39:49.133Z,434
2017-07-10T11:40:49.139Z,430
2017-07-10T11:41:49.139Z,425
2017-07-10T11:42:49.137Z,422
2017-07-10T11:43:49.138Z,430
2017-07-10T11:44:49.141Z,465
2017-07-10T11:45:49.141Z,496
2017-07-10T11:46:49.140Z,460
2017-07-10T11:47:49.143Z,395
2017-07-10T11:48:49.142Z,350
2017-07-10T11:49:49.144Z,365
2017-07-10T11:50:49.148Z,399
2017-07-10T11:51:49.143Z,420
2017-07-10T11:52:49.145Z,419
2017-07-10T11:53:49.143Z,416
2017-07-10T11:54:49.247Z,391
2017-07-10T11:55:49.152Z,371
2017-07-10T11:56:49.160Z,396
2017-07-10T11:57:49.148Z,412
2017-07-10T11:58:49.147Z,363
2017-07-10T11:59:49.149Z,328
2017-07-10T12:00:49.147Z,320
2017-07-10T12:01:49.148Z,350
2017-07-10T12:02:49.146Z,380
2017-07-10T12:03:49.160Z,404
2017-07-10T12:04:49.151Z,427
2017-07-10T12:05:49.150Z,410
2017-07-10T12:06:49.151Z,407
2017-07-10T12:07:49.154Z,431
2017-07-10T12:08:49.152Z,377
2017-07-10T12:09:49.153Z,299
2017-07-10T12:10:49.145Z,268
2017-07-10T12:11:49.142Z,271
2017-07-10T12:12:49.137Z,271
2017-07-10T12:13:49.140Z,276
2017-07-10T12:14:49.137Z,222
2017-07-10T12:15:49.141Z,186
2017-07-10T12:16:49.143Z,200
2017-07-10T12:17:49.144Z,244
2017-07-10T12:18:49.142Z,277
2017-07-10T12:19:49.148Z,289
2017-07-10T12:20:49.149Z,293
2017-07-10T12:21:49.150Z,304
2017-07-10T12:22:49.146Z,324
2017-07-10T12:23:49.146Z,353
2017-07-10T12:24:49.136Z,398
2017-07-10T12:25:49.149Z,493
2017-07-10T12:26:49.149Z,636
2017-07-10T12:27:49.149Z,854
2017-07-10T12:28:49.148Z,848
2017-07-10T12:29:49.153Z,785
2017-07-10T12:30:49.156Z,1197
2017-07-10T12:31:49.151Z,1489
2017-07-10T12:32:49.155Z,1012
2017-07-10T12:33:49.154Z,733
2017-07-10T12:34:49.156Z,1258
2017-07-10T12:35:49.152Z,646
2017-07-10T12:36:49.154Z,830
2017-07-10T12:37:49.156Z,1463
2017-07-10T12:38:49.156Z,1422
2017-07-10T12:39:49.157Z,762
2017-07-10T12:40:49.080Z,831
2017-07-10T12:41:49.158Z,425
2017-07-10T12:42:49.156Z,398
2017-07-10T12:43:49.162Z,393
2017-07-10T12:44:49.157Z,440
2017-07-10T12:45:49.160Z,455
2017-07-10T12:46:49.157Z,392
2017-07-10T12:47:49.159Z,442
2017-07-10T12:48:49.159Z,517
2017-07-10T12:49:49.164Z,1264
2017-07-10T12:50:49.161Z,1457
2017-07-10T12:51:49.162Z,719
2017-07-10T12:52:49.161Z,556
2017-07-10T12:53:49.162Z,527
2017-07-10T12:54:49.163Z,495
2017-07-10T12:55:49.165Z,475
2017-07-10T12:56:49.167Z,517
2017-07-10T12:57:49.166Z,574
2017-07-10T12:58:49.165Z,729
2017-07-10T12:59:49.167Z,664
2017-07-10T13:00:49.168Z,649
2017-07-10T13:01:49.168Z,735
2017-07-10T13:02:49.170Z,659
2017-07-10T13:03:49.166Z,784
2017-07-10T13:04:49.172Z,794
2017-07-10T13:05:49.168Z,759
2017-07-10T13:06:49.167Z,853
2017-07-10T13:07:49.169Z,758
2017-07-10T13:08:49.169Z,787
2017-07-10T13:09:49.175Z,917
2017-07-10T13:10:49.170Z,678
2017-07-10T13:11:49.171Z,660
2017-07-10T13:12:49.172Z,1268
2017-07-10T13:13:49.180Z,976
2017-07-10T13:14:49.176Z,1290
2017-07-10T13:15:49.176Z,449
2017-07-10T13:16:49.175Z,575
2017-07-10T13:17:49.178Z,548
2017-07-10T13:18:49.179Z,404
2017-07-10T13:19:49.179Z,325
2017-07-10T13:20:49.177Z,298
2017-07-10T13:21:49.180Z,271
2017-07-10T13:22:49.179Z,234
2017-07-10T13:23:49.180Z,198
2017-07-10T13:24:49.180Z,172
2017-07-10T13:25:49.182Z,164
2017-07-10T13:26:49.183Z,172
2017-07-10T13:27:49.179Z,185
2017-07-10T13:28:49.181Z,194
2017-07-10T13:29:49.183Z,209
2017-07-10T13:30:49.241Z,218
2017-07-10T13:31:49.183Z,202
2017-07-10T13:32:49.185Z,190
2017-07-10T13:33:49.187Z,188
2017-07-10T13:34:49.192Z,187
2017-07-10T13:35:49.185Z,194
2017-07-10T13:36:49.186Z,263
2017-07-10T13:37:49.187Z,317
2017-07-10T13:38:50.196Z,333
2017-07-10T13:39:49.190Z,325
2017-07-10T13:40:49.192Z,326
2017-07-10T13:41:49.198Z,334
2017-07-10T13:42:49.192Z,339
2017-07-10T13:43:49.190Z,335
2017-07-10T13:44:49.195Z,360
2017-07-10T13:45:49.195Z,379
2017-07-10T13:46:49.193Z,427
2017-07-10T13:47:49.194Z,947
2017-07-10T13:48:49.197Z,1163
2017-07-10T13:49:49.196Z,1245
2017-07-10T13:50:49.195Z,1256
2017-07-10T13:51:49.196Z,922
2017-07-10T13:52:49.195Z,1172
2017-07-10T13:53:49.202Z,1145
2017-07-10T13:54:49.200Z,405
2017-07-10T13:55:49.199Z,590
2017-07-10T13:56:49.202Z,329
2017-07-10T13:57:49.203Z,278
2017-07-10T13:58:49.202Z,354
2017-07-10T13:59:49.198Z,436
2017-07-10T14:00:49.205Z,303
2017-07-10T14:01:49.200Z,380
2017-07-10T14:02:49.205Z,1061
2017-07-10T14:03:49.201Z,1082
2017-07-10T14:04:49.206Z,1057
2017-07-10T14:05:49.202Z,1089
2017-07-10T14:06:49.205Z,1084
2017-07-10T14:07:49.259Z,910
2017-07-10T14:08:49.206Z,982
2017-07-10T14:09:49.202Z,958
2017-07-10T14:10:49.205Z,1009
2017-07-10T14:11:49.205Z,1020